Terminal Aerodrome Forecast
Issued by NWS Green Bay, WI

Home | Current Version | Previous Version | Graphics & Text | Print | Product List | Glossary On
Versions: 1 2 3 4 5 6 7 8 9 10 11 12 13 14 15 16 17 18
000
FTUS43 KGRB 240914 AAA
TAFGRB
TAF AMD
KGRB 240914Z 2409/2506 19009KT P6SM SCT010 BKN060 WS020/21035KT
      TEMPO 2409/2411 2SM TSRA BKN010CB
     FM241100 16006KT P6SM SCT015 OVC040 WS020/21035KT
      TEMPO 2411/2414 5SM -SHRA BKN015
     FM241500 22010G18KT 6SM HZ SCT025 BKN050
     FM242000 26010G18KT P6SM SCT050
     FM250100 27005KT P6SM FEW050=

USA.gov is the U.S. government's official web portal to all federal, state and local government web resources and services.